createdAt,value
2019-05-11T00:00:24.223Z,6.40
2019-05-11T00:04:26.966Z,6.33
2019-05-11T00:08:29.428Z,6.40
2019-05-11T00:12:32.028Z,7.40
2019-05-11T00:16:34.993Z,6.90
2019-05-11T00:20:37.653Z,6.60
2019-05-11T00:24:39.949Z,6.40
2019-05-11T00:28:42.605Z,7.77
2019-05-11T00:32:44.977Z,6.90
2019-05-11T00:36:47.554Z,7.37
2019-05-11T00:40:50.178Z,7.70
2019-05-11T00:44:52.879Z,7.60
2019-05-11T00:48:55.280Z,7.07
2019-05-11T00:52:57.698Z,7.13
2019-05-11T00:57:00.144Z,7.30
2019-05-11T01:01:02.578Z,8.10
2019-05-11T01:05:04.918Z,8.10
2019-05-11T01:09:07.412Z,7.63
2019-05-11T01:13:09.804Z,8.27
2019-05-11T01:17:12.266Z,7.80
2019-05-11T01:21:14.757Z,8.23
2019-05-11T01:25:17.269Z,8.50
2019-05-11T01:29:19.930Z,7.90
2019-05-11T01:33:22.386Z,7.63
2019-05-11T01:37:24.877Z,8.23
2019-05-11T01:41:27.511Z,7.20
2019-05-11T01:45:29.865Z,8.27
2019-05-11T01:49:32.891Z,8.10
2019-05-11T01:53:35.267Z,7.33
2019-05-11T01:57:37.839Z,7.80
2019-05-11T02:01:40.217Z,8.00
2019-05-11T02:05:42.699Z,6.30
2019-05-11T02:09:45.256Z,5.10
2019-05-11T02:13:47.816Z,5.43
2019-05-11T02:17:50.212Z,4.70
2019-05-11T02:21:53.533Z,4.23
2019-05-11T02:25:56.299Z,5.30
2019-05-11T02:29:58.918Z,5.60
2019-05-11T02:34:01.925Z,4.00
2019-05-11T02:38:04.532Z,4.33
2019-05-11T02:42:06.928Z,4.00
2019-05-11T02:46:09.655Z,3.90
2019-05-11T02:50:12.113Z,4.73
2019-05-11T02:54:14.768Z,2.83
2019-05-11T02:58:17.177Z,3.30
2019-05-11T03:02:19.596Z,3.70
2019-05-11T03:06:22.113Z,3.00
2019-05-11T03:10:24.553Z,3.00
2019-05-11T03:14:27.074Z,2.83
2019-05-11T03:18:29.622Z,2.83
2019-05-11T03:22:32.035Z,2.70
2019-05-11T03:26:34.678Z,2.90
2019-05-11T03:30:37.107Z,2.97
2019-05-11T03:34:39.924Z,2.27
2019-05-11T03:38:42.277Z,2.40
2019-05-11T03:42:44.918Z,2.20
2019-05-11T03:46:47.245Z,2.90
2019-05-11T03:50:49.807Z,2.00
2019-05-11T03:54:52.132Z,2.43
2019-05-11T03:58:54.584Z,2.60
2019-05-11T04:02:57.049Z,3.30
2019-05-11T04:06:59.846Z,2.70
2019-05-11T04:11:02.542Z,2.50
2019-05-11T04:15:05.302Z,2.40
2019-05-11T04:19:07.758Z,2.30
2019-05-11T04:23:10.430Z,2.80
2019-05-11T04:27:12.857Z,2.50
2019-05-11T04:31:16.144Z,2.47
2019-05-11T04:35:18.564Z,2.23
2019-05-11T04:39:21.115Z,3.07
2019-05-11T04:43:23.611Z,2.77
2019-05-11T04:47:26.242Z,3.30
2019-05-11T04:51:28.598Z,2.73
2019-05-11T04:55:31.334Z,2.70
2019-05-11T04:59:33.951Z,2.97
2019-05-11T05:03:40.645Z,2.50
2019-05-11T05:07:47.671Z,2.67
2019-05-11T05:11:44.017Z,2.63
2019-05-11T05:15:46.359Z,2.23
2019-05-11T05:19:48.980Z,2.30
2019-05-11T05:23:52.659Z,2.17
2019-05-11T05:27:55.179Z,2.70
2019-05-11T05:31:57.718Z,2.27
2019-05-11T05:36:00.481Z,2.00
2019-05-11T05:40:02.897Z,2.13
2019-05-11T05:44:05.461Z,2.27
2019-05-11T05:48:08.187Z,2.30
2019-05-11T05:52:10.640Z,2.50
2019-05-11T05:56:13.104Z,2.47
2019-05-11T06:00:15.429Z,2.40
2019-05-11T06:04:17.925Z,2.47
2019-05-11T06:08:20.559Z,2.27
2019-05-11T06:12:23.107Z,2.63
2019-05-11T06:16:25.638Z,2.10
2019-05-11T06:20:27.994Z,2.20
2019-05-11T06:24:30.768Z,2.40
2019-05-11T06:28:33.240Z,2.30
2019-05-11T06:32:35.919Z,2.07
2019-05-11T06:36:38.317Z,1.97
2019-05-11T06:40:40.665Z,2.03
2019-05-11T06:44:42.954Z,2.10
2019-05-11T06:48:45.405Z,2.03
2019-05-11T06:52:47.693Z,2.00
2019-05-11T06:56:50.379Z,2.17
2019-05-11T07:00:53.020Z,2.10
2019-05-11T07:04:55.591Z,1.90
2019-05-11T07:08:58.439Z,2.10
2019-05-11T07:13:00.973Z,2.17
2019-05-11T07:17:03.366Z,1.90
2019-05-11T07:21:05.794Z,2.23
2019-05-11T07:25:08.463Z,2.17
2019-05-11T07:29:10.937Z,2.10
2019-05-11T07:33:13.211Z,2.03
2019-05-11T07:37:15.721Z,2.20
2019-05-11T07:41:18.190Z,1.80
2019-05-11T07:45:20.764Z,2.50
2019-05-11T07:49:23.711Z,1.60
2019-05-11T07:53:27.927Z,1.90
2019-05-11T07:57:29.917Z,2.00
2019-05-11T08:01:32.339Z,1.50
2019-05-11T08:05:34.717Z,1.73
2019-05-11T08:09:38.022Z,2.10
2019-05-11T08:13:40.591Z,2.00
2019-05-11T08:17:43.215Z,1.70
2019-05-11T08:21:47.525Z,1.77
2019-05-11T08:25:49.287Z,1.73
2019-05-11T08:29:51.562Z,1.73
2019-05-11T08:33:53.993Z,1.77
2019-05-11T08:37:58.234Z,1.87
2019-05-11T08:42:03.121Z,1.90
2019-05-11T08:46:04.211Z,2.00
2019-05-11T08:50:08.056Z,2.10
2019-05-11T08:54:10.640Z,1.73
2019-05-11T08:58:13.019Z,1.70
2019-05-11T09:02:15.357Z,2.07
2019-05-11T09:06:18.041Z,1.97
2019-05-11T09:10:21.005Z,2.33
2019-05-11T09:14:23.755Z,2.50
2019-05-11T09:18:27.774Z,2.80
2019-05-11T09:22:29.915Z,2.93
2019-05-11T09:26:32.427Z,2.87
2019-05-11T09:30:34.824Z,2.80
2019-05-11T09:34:37.782Z,2.93
2019-05-11T09:38:40.491Z,3.10
2019-05-11T09:42:43.014Z,2.77
2019-05-11T09:46:47.631Z,2.80
2019-05-11T09:50:49.144Z,2.90
2019-05-11T09:54:51.590Z,3.03
2019-05-11T09:58:53.970Z,3.30
2019-05-11T10:02:57.704Z,3.50
2019-05-11T10:07:00.339Z,3.97
2019-05-11T10:11:02.949Z,3.70
2019-05-11T10:15:05.295Z,3.67
2019-05-11T10:19:08.518Z,3.40
2019-05-11T10:23:11.016Z,3.50
2019-05-11T10:27:13.590Z,3.87
2019-05-11T10:31:18.041Z,4.03
2019-05-11T10:35:19.884Z,3.50
2019-05-11T10:39:22.144Z,3.47
2019-05-11T10:43:24.456Z,3.77
2019-05-11T10:47:27.809Z,3.93
2019-05-11T10:51:30.474Z,4.50
2019-05-11T10:55:32.790Z,4.40
2019-05-11T10:59:35.291Z,3.70
2019-05-11T11:03:37.847Z,3.70
2019-05-11T11:07:40.312Z,4.10
2019-05-11T11:11:42.795Z,3.97
2019-05-11T11:15:45.251Z,3.87
2019-05-11T11:19:49.673Z,5.07
2019-05-11T11:23:52.065Z,4.60
2019-05-11T11:27:54.413Z,4.07
2019-05-11T11:31:58.753Z,4.90
2019-05-11T11:36:00.951Z,3.60
2019-05-11T11:40:03.262Z,3.53
2019-05-11T11:44:07.653Z,4.27
2019-05-11T11:48:09.494Z,4.57
2019-05-11T11:52:12.025Z,5.50
2019-05-11T11:56:14.597Z,4.63
2019-05-11T12:00:18.250Z,5.20
2019-05-11T12:04:21.043Z,4.90
2019-05-11T12:08:23.442Z,4.27
2019-05-11T12:12:27.954Z,6.00
2019-05-11T12:16:29.881Z,5.50
2019-05-11T12:20:32.488Z,5.60
2019-05-11T12:24:34.967Z,5.73
2019-05-11T12:28:38.192Z,5.17
2019-05-11T12:32:40.646Z,5.20
2019-05-11T12:36:43.192Z,18.17
2019-05-11T12:40:47.575Z,17.40
2019-05-11T12:44:49.448Z,19.43
2019-05-11T12:48:51.783Z,16.30
2019-05-11T12:52:55.998Z,16.47
2019-05-11T12:56:58.201Z,18.30
2019-05-11T13:01:00.877Z,18.13
2019-05-11T13:05:03.273Z,18.73
2019-05-11T13:09:07.546Z,18.30
2019-05-11T13:13:09.345Z,18.03
2019-05-11T13:17:11.814Z,18.50
2019-05-11T13:21:14.116Z,18.97
2019-05-11T13:25:17.724Z,17.57
2019-05-11T13:29:20.209Z,18.37
2019-05-11T13:33:22.694Z,18.87
2019-05-11T13:37:25.014Z,17.57
2019-05-11T13:41:28.038Z,17.13
2019-05-11T13:45:30.510Z,16.53
2019-05-11T13:49:32.945Z,17.30
2019-05-11T13:53:37.506Z,16.70
2019-05-11T13:57:39.402Z,15.73
2019-05-11T14:01:41.791Z,15.10
2019-05-11T14:05:44.191Z,17.20
2019-05-11T14:09:48.436Z,17.30
2019-05-11T14:13:50.716Z,15.17
2019-05-11T14:18:04.746Z,14.30
2019-05-11T14:21:58.139Z,14.30
2019-05-11T14:26:00.711Z,16.53
2019-05-11T14:30:04.159Z,14.70
2019-05-11T14:34:08.715Z,14.43
2019-05-11T14:38:10.565Z,14.33
2019-05-11T14:42:12.837Z,13.87
2019-05-11T14:46:17.861Z,13.80
2019-05-11T14:50:19.368Z,13.00
2019-05-11T14:54:21.896Z,12.67
2019-05-11T14:58:24.104Z,13.97
2019-05-11T15:02:28.518Z,12.23
2019-05-11T15:06:30.403Z,11.70
2019-05-11T15:10:33.339Z,11.50
2019-05-11T15:14:37.790Z,14.37
2019-05-11T15:18:42.198Z,12.73
2019-05-11T15:22:43.675Z,11.20
2019-05-11T15:26:48.455Z,12.07
2019-05-11T15:30:50.103Z,12.40
2019-05-11T15:34:52.509Z,11.17
2019-05-11T15:38:54.888Z,12.60
2019-05-11T15:42:58.521Z,11.80
2019-05-11T15:47:01.064Z,13.00
2019-05-11T15:51:03.463Z,11.87
2019-05-11T15:55:07.923Z,11.67
2019-05-11T15:59:09.854Z,11.63
2019-05-11T16:03:12.123Z,12.73
2019-05-11T16:07:14.554Z,12.20
2019-05-11T16:11:18.034Z,11.67
2019-05-11T16:15:20.966Z,12.50
2019-05-11T16:19:23.342Z,13.27
2019-05-11T16:23:28.226Z,13.40
2019-05-11T16:27:29.766Z,12.23
2019-05-11T16:31:32.442Z,13.90
2019-05-11T16:35:34.839Z,13.23
2019-05-11T16:39:38.459Z,12.13
2019-05-11T16:43:41.026Z,12.30
2019-05-11T16:47:43.452Z,13.03
2019-05-11T16:51:45.791Z,13.43
2019-05-11T16:55:48.749Z,11.63
2019-05-11T16:59:51.260Z,12.23
2019-05-11T17:03:53.773Z,12.87
2019-05-11T17:07:56.152Z,11.70
2019-05-11T17:12:00.075Z,11.30
2019-05-11T17:16:02.719Z,11.03
2019-05-11T17:20:05.267Z,11.20
2019-05-11T17:24:07.575Z,20.00
2019-05-11T17:28:10.254Z,20.73
2019-05-11T17:32:12.720Z,21.53
2019-05-11T17:36:15.172Z,21.50
2019-05-11T17:40:20.533Z,21.67
2019-05-11T17:44:21.931Z,22.73
2019-05-11T17:48:24.696Z,21.73
2019-05-11T17:52:28.203Z,20.47
2019-05-11T17:56:30.785Z,22.67
2019-05-11T18:00:33.457Z,25.73
2019-05-11T18:04:35.806Z,22.27
2019-05-11T18:08:38.765Z,17.80
2019-05-11T18:12:41.522Z,16.87
2019-05-11T18:16:44.026Z,42.23
2019-05-11T18:20:48.371Z,50.33
2019-05-11T18:24:50.380Z,28.57
2019-05-11T18:28:52.828Z,27.67
2019-05-11T18:32:55.281Z,31.73
2019-05-11T18:36:57.935Z,41.60
2019-05-11T18:41:00.574Z,32.53
2019-05-11T18:45:03.115Z,30.50
2019-05-11T18:49:06.674Z,28.27
2019-05-11T18:53:09.331Z,27.07
2019-05-11T18:57:12.047Z,27.73
2019-05-11T19:01:14.379Z,27.33
2019-05-11T19:05:18.037Z,24.57
2019-05-11T19:09:20.729Z,22.60
2019-05-11T19:13:23.278Z,24.27
2019-05-11T19:17:25.729Z,26.13
2019-05-11T19:21:28.086Z,23.77
2019-05-11T19:25:30.418Z,25.00
2019-05-11T19:29:33.628Z,23.00
2019-05-11T19:33:38.045Z,21.63
2019-05-11T19:37:40.027Z,22.93
2019-05-11T19:41:42.440Z,21.00
2019-05-11T19:45:44.884Z,21.30
2019-05-11T19:49:47.970Z,21.20
2019-05-11T19:53:51.011Z,20.57
2019-05-11T19:57:53.298Z,18.50
2019-05-11T20:01:59.385Z,19.20
2019-05-11T20:05:59.552Z,17.53
2019-05-11T20:10:02.627Z,17.63
2019-05-11T20:14:05.026Z,16.60
2019-05-11T20:18:07.988Z,15.57
2019-05-11T20:22:10.540Z,15.27
2019-05-11T20:26:12.839Z,15.87
2019-05-11T20:30:15.231Z,13.47
2019-05-11T20:34:17.959Z,15.20
2019-05-11T20:38:20.518Z,14.27
2019-05-11T20:42:23.197Z,15.63
2019-05-11T20:46:27.595Z,15.90
2019-05-11T20:50:29.387Z,14.00
2019-05-11T20:54:31.730Z,13.73
2019-05-11T20:58:34.345Z,13.40
2019-05-11T21:02:38.093Z,13.47
2019-05-11T21:06:40.434Z,12.87
2019-05-11T21:10:42.777Z,13.17
2019-05-11T21:14:45.403Z,13.00
2019-05-11T21:18:47.718Z,12.90
2019-05-11T21:22:50.186Z,12.57
2019-05-11T21:26:52.685Z,11.87
2019-05-11T21:30:55.153Z,10.70
2019-05-11T21:34:58.352Z,11.70
2019-05-11T21:39:02.105Z,11.07
2019-05-11T21:43:04.478Z,11.73
2019-05-11T21:47:07.735Z,11.70
2019-05-11T21:51:10.407Z,11.43
2019-05-11T21:55:13.167Z,12.83
2019-05-11T21:59:15.712Z,10.13
2019-05-11T22:03:18.850Z,11.40
2019-05-11T22:07:23.197Z,10.47
2019-05-11T22:11:25.155Z,10.30
2019-05-11T22:15:28.482Z,11.70
2019-05-11T22:19:31.327Z,12.53
2019-05-11T22:23:33.789Z,11.50
2019-05-11T22:27:38.405Z,11.83
2019-05-11T22:31:42.133Z,10.50
2019-05-11T22:35:43.848Z,10.30
2019-05-11T22:39:46.162Z,10.53
2019-05-11T22:43:48.658Z,12.10
2019-05-11T22:47:51.124Z,12.10
2019-05-11T22:51:53.663Z,9.50
2019-05-11T22:55:56.150Z,10.80
2019-05-11T23:00:01.494Z,11.30
2019-05-11T23:04:02.842Z,10.63
2019-05-11T23:08:07.509Z,10.63
2019-05-11T23:12:09.591Z,9.93
2019-05-11T23:16:11.941Z,11.53
2019-05-11T23:20:14.267Z,12.13
2019-05-11T23:24:18.107Z,13.53
2019-05-11T23:28:20.526Z,11.13
2019-05-11T23:32:23.021Z,11.13
2019-05-11T23:36:27.389Z,10.23
2019-05-11T23:40:29.369Z,10.80
2019-05-11T23:44:31.698Z,10.10
2019-05-11T23:48:34.272Z,9.10
2019-05-11T23:52:38.020Z,10.87
2019-05-11T23:56:40.392Z,8.50
